Time;durP1;ratioP1;P1;durP2;ratioP2;P2;SDS_P1;SDS_P2;PMS_P1;PMS_P2;Temp;Humidity;BMP_temperature;BMP_pressure;BME280_temperature;BME280_humidity;BME280_pressure;Samples;Min_cycle;Max_cycle;Signal;HPM_P1;HPM_P2
2023/12/28 00:01:22;;;;;;;8.77;2.60;;;;;;;-145.18;100.00;46894.81;5042116;28;20045;-79
2023/12/28 00:03:47;;;;;;;6.00;2.77;;;;;;;-145.18;100.00;46898.72;5046217;28;20041;-79
2023/12/28 00:06:13;;;;;;;11.17;3.10;;;;;;;-145.18;100.00;46904.56;5046948;28;20031;-79
2023/12/28 00:08:39;;;;;;;4.90;2.87;;;;;;;-145.18;100.00;46902.63;5047415;28;20393;-79
2023/12/28 00:11:04;;;;;;;9.53;2.87;;;;;;;-145.18;100.00;46900.66;5045993;28;20029;-80
2023/12/28 00:13:29;;;;;;;5.97;2.90;;;;;;;-145.18;100.00;46900.66;5045489;28;20461;-79
2023/12/28 00:15:55;;;;;;;6.70;2.50;;;;;;;-145.18;100.00;46906.53;5046305;28;20033;-79
2023/12/28 00:18:20;;;;;;;11.10;3.40;;;;;;;-145.18;100.00;46904.56;5045494;28;20069;-79
2023/12/28 00:20:45;;;;;;;5.33;2.93;;;;;;;-145.18;100.00;46904.56;5048362;28;20473;-79
2023/12/28 00:23:11;;;;;;;9.63;2.50;;;;;;;-145.18;100.00;46902.63;5045419;28;20036;-79
2023/12/28 00:25:36;;;;;;;5.17;2.80;;;;;;;-145.18;100.00;46902.63;5046263;28;20098;-80
2023/12/28 00:28:02;;;;;;;7.20;3.53;;;;;;;-145.18;100.00;46898.72;5044440;28;20120;-79
2023/12/28 00:30:27;;;;;;;7.17;3.33;;;;;;;-145.18;100.00;46906.53;5045117;28;20025;-80
2023/12/28 00:32:53;;;;;;;9.13;2.97;;;;;;;-145.18;100.00;46902.63;5046682;28;20140;-77
2023/12/28 00:35:18;;;;;;;7.00;2.40;;;;;;;-145.18;100.00;46904.56;5054155;28;20496;-80
2023/12/28 00:37:44;;;;;;;4.70;2.40;;;;;;;-145.18;100.00;46906.53;5045676;28;20033;-79
2023/12/28 00:40:10;;;;;;;4.53;2.30;;;;;;;-145.18;100.00;46906.53;5051885;28;20021;-79
2023/12/28 00:42:35;;;;;;;4.20;2.43;;;;;;;-145.18;100.00;46910.44;5048529;28;20037;-79
2023/12/28 00:45:00;;;;;;;6.33;2.57;;;;;;;-145.18;100.00;46912.38;5051552;28;20029;-80
2023/12/28 00:47:26;;;;;;;7.23;2.73;;;;;;;-145.18;100.00;46908.47;5049831;28;20957;-80
2023/12/28 00:49:51;;;;;;;5.93;2.63;;;;;;;-145.18;100.00;46910.44;5052225;28;20158;-81
2023/12/28 00:52:16;;;;;;;5.90;2.53;;;;;;;-145.18;100.00;46910.44;5039529;28;20026;-80
2023/12/28 00:54:42;;;;;;;5.83;2.60;;;;;;;-145.18;100.00;46916.28;5031888;28;20451;-81
2023/12/28 00:57:07;;;;;;;4.00;2.53;;;;;;;-145.18;100.00;46912.38;5033755;28;20067;-81
2023/12/28 00:59:33;;;;;;;4.73;3.10;;;;;;;-145.18;100.00;46912.38;5040755;28;20028;-80
2023/12/28 01:01:58;;;;;;;7.57;2.87;;;;;;;-145.18;100.00;46908.47;5041069;28;20037;-80
2023/12/28 01:04:24;;;;;;;7.00;2.77;;;;;;;-145.18;100.00;46910.44;5051773;28;20151;-80
2023/12/28 01:06:49;;;;;;;7.10;2.80;;;;;;;-145.18;100.00;46910.44;5050489;28;20029;-80
2023/12/28 01:09:15;;;;;;;4.93;2.40;;;;;;;-145.18;100.00;46914.34;5048352;28;20045;-81
2023/12/28 01:11:40;;;;;;;8.43;3.10;;;;;;;-145.18;100.00;46910.44;5051160;28;20033;-80
2023/12/28 01:14:06;;;;;;;7.83;2.83;;;;;;;-145.18;100.00;46912.38;5047438;28;20025;-79
2023/12/28 01:16:31;;;;;;;4.53;2.50;;;;;;;-145.18;100.00;46912.38;5033112;28;20182;-81
2023/12/28 01:18:57;;;;;;;9.07;2.93;;;;;;;-145.18;100.00;46918.25;5043965;28;20082;-80
2023/12/28 01:21:22;;;;;;;5.57;2.50;;;;;;;-145.18;100.00;46914.34;5051214;28;20386;-80
2023/12/28 01:23:48;;;;;;;5.63;2.80;;;;;;;-145.18;100.00;46924.09;5043208;28;20069;-80
2023/12/28 01:26:17;;;;;;;5.50;2.50;;;;;;;-145.18;100.00;46922.16;5047053;28;20060;-80
2023/12/28 01:28:42;;;;;;;5.27;2.67;;;;;;;-145.18;100.00;46928.00;5043214;28;20022;-80
2023/12/28 01:31:08;;;;;;;6.17;2.70;;;;;;;-145.18;100.00;46922.16;5033869;28;20091;-81
2023/12/28 01:33:33;;;;;;;7.40;2.97;;;;;;;-145.18;100.00;46928.00;5052519;28;20077;-81
2023/12/28 01:35:59;;;;;;;7.10;2.87;;;;;;;-145.18;100.00;46926.06;5039135;28;20021;-80
2023/12/28 01:38:24;;;;;;;8.33;2.47;;;;;;;-145.18;100.00;46929.97;5036589;28;20429;-80
2023/12/28 01:40:50;;;;;;;7.23;2.80;;;;;;;-145.18;100.00;46929.97;5042934;28;20041;-81
2023/12/28 01:43:15;;;;;;;5.87;2.33;;;;;;;-145.18;100.00;46931.91;5051588;28;20075;-80
2023/12/28 01:45:41;;;;;;;8.90;2.47;;;;;;;-145.18;100.00;46933.88;5045364;28;20033;-81
2023/12/28 01:48:07;;;;;;;7.53;2.60;;;;;;;-145.18;100.00;46933.88;5036624;28;20025;-80
2023/12/28 01:50:32;;;;;;;3.97;2.30;;;;;;;-145.18;100.00;46928.00;5034965;28;20033;-79
2023/12/28 01:53:00;;;;;;;6.57;2.20;;;;;;;-145.18;100.00;46928.00;5037785;28;20029;-80
2023/12/28 01:55:27;;;;;;;7.67;3.43;;;;;;;-145.18;100.00;46929.97;5035972;28;20030;-81
2023/12/28 01:57:53;;;;;;;3.63;2.23;;;;;;;-145.18;100.00;46929.97;5048945;28;20124;-80
2023/12/28 02:00:24;;;;;;;8.10;2.00;;;;;;;-145.18;100.00;46924.09;5036635;28;20057;-80
2023/12/28 02:02:50;;;;;;;6.03;2.33;;;;;;;-145.18;100.00;46931.91;5042695;28;20059;-80
2023/12/28 02:05:16;;;;;;;5.23;1.90;;;;;;;-145.18;100.00;46928.00;5046687;28;20029;-80
2023/12/28 02:07:42;;;;;;;9.13;2.50;;;;;;;-145.18;100.00;46931.91;5051369;28;20048;-80
2023/12/28 02:10:07;;;;;;;7.13;2.70;;;;;;;-145.18;100.00;46933.88;5051124;28;20473;-80
2023/12/28 02:12:33;;;;;;;10.87;2.47;;;;;;;-145.18;100.00;46929.97;5050170;28;20033;-80
2023/12/28 02:14:59;;;;;;;8.77;2.17;;;;;;;-145.18;100.00;46928.00;5049675;28;20036;-80
2023/12/28 02:17:28;;;;;;;7.33;2.13;;;;;;;-145.18;100.00;46928.00;5050887;28;20075;-80
2023/12/28 02:19:55;;;;;;;6.43;2.63;;;;;;;-145.18;100.00;46924.09;5051220;28;20021;-80
2023/12/28 02:22:24;;;;;;;4.93;1.87;;;;;;;-145.18;100.00;46928.00;5051752;28;20120;-80
2023/12/28 02:25:06;;;;;;;3.93;2.17;;;;;;;-145.18;100.00;46926.06;5039124;28;20057;-80
2023/12/28 02:27:32;;;;;;;7.60;1.77;;;;;;;-145.18;100.00;46926.06;5050865;28;20068;-80
2023/12/28 02:29:57;;;;;;;6.03;1.70;;;;;;;-145.18;100.00;46918.25;5046896;28;20060;-81
2023/12/28 02:32:35;;;;;;;4.73;1.70;;;;;;;-145.18;100.00;46918.25;5037169;28;20045;-80
2023/12/28 02:35:25;;;;;;;5.27;1.70;;;;;;;-145.18;100.00;46916.28;5036456;28;20509;-81
2023/12/28 02:37:58;;;;;;;6.63;2.00;;;;;;;-145.18;100.00;46910.44;5047143;28;20083;-80
2023/12/28 02:40:24;;;;;;;7.30;2.17;;;;;;;-145.18;100.00;46914.34;5049794;28;20551;-80
2023/12/28 02:42:50;;;;;;;9.17;2.20;;;;;;;-145.18;100.00;46910.44;5054117;28;20474;-80
2023/12/28 02:45:17;;;;;;;6.10;1.70;;;;;;;-145.18;100.00;46912.38;5054107;28;20040;-80
2023/12/28 02:47:44;;;;;;;8.63;2.30;;;;;;;-145.18;100.00;46908.47;5043913;28;20029;-79
2023/12/28 02:50:09;;;;;;;5.60;1.80;;;;;;;-145.18;100.00;46906.53;5055374;28;20033;-79
2023/12/28 02:52:34;;;;;;;7.37;1.80;;;;;;;-145.18;100.00;46902.63;5055137;28;20037;-80
2023/12/28 02:55:00;;;;;;;11.03;2.63;;;;;;;-145.18;100.00;46904.56;5054609;28;20060;-80
2023/12/28 02:57:25;;;;;;;15.60;2.73;;;;;;;-145.18;100.00;46908.47;5055458;28;20385;-79
2023/12/28 02:59:51;;;;;;;9.23;2.13;;;;;;;-145.18;100.00;46904.56;5053745;28;20052;-80
2023/12/28 03:02:16;;;;;;;7.40;2.33;;;;;;;-145.18;100.00;46908.47;5043952;28;20447;-80
2023/12/28 03:04:41;;;;;;;8.63;1.73;;;;;;;-145.18;100.00;46906.53;5047708;28;20024;-80
2023/12/28 03:07:08;;;;;;;7.00;1.50;;;;;;;-145.18;100.00;46898.72;5054058;28;20029;-87
2023/12/28 03:09:34;;;;;;;4.70;1.90;;;;;;;-145.18;100.00;46902.63;5055114;28;20039;-88
2023/12/28 03:12:00;;;;;;;7.63;1.90;;;;;;;-145.18;100.00;46904.56;5040583;28;20565;-88
2023/12/28 03:14:26;;;;;;;7.13;2.23;;;;;;;-145.18;100.00;46904.56;5046282;28;20036;-87
2023/12/28 03:16:51;;;;;;;5.40;2.00;;;;;;;-145.18;100.00;46896.75;5054827;28;20033;-88
2023/12/28 03:19:17;;;;;;;7.10;2.30;;;;;;;-145.18;100.00;46900.66;5054230;28;20104;-87
2023/12/28 03:21:43;;;;;;;7.97;2.17;;;;;;;-145.18;100.00;46898.72;5054438;28;20032;-88
2023/12/28 03:24:08;;;;;;;9.30;1.93;;;;;;;-145.18;100.00;46896.75;5055291;28;20040;-87
2023/12/28 03:26:38;;;;;;;9.17;2.33;;;;;;;-145.18;100.00;46896.75;5055739;28;20476;-83
2023/12/28 03:29:05;;;;;;;13.73;2.87;;;;;;;-145.18;100.00;46892.84;5042259;28;20039;-89
2023/12/28 03:31:30;;;;;;;9.63;3.03;;;;;;;-145.18;100.00;46896.75;5054014;28;20032;-89
2023/12/28 03:33:56;;;;;;;9.77;2.13;;;;;;;-145.18;100.00;46892.84;5071188;28;20462;-90
2023/12/28 03:36:23;;;;;;;6.93;2.10;;;;;;;-145.18;100.00;46898.72;5021767;28;20083;-90
2023/12/28 03:38:48;;;;;;;11.30;3.27;;;;;;;-145.18;100.00;46896.75;5051921;28;20025;-89
2023/12/28 03:41:20;;;;;;;7.07;2.20;;;;;;;-145.18;100.00;46892.84;5049078;28;20124;-89
2023/12/28 03:43:46;;;;;;;6.40;1.67;;;;;;;-145.18;100.00;46892.84;5048379;28;20538;-88
2023/12/28 03:46:12;;;;;;;9.53;1.87;;;;;;;-145.18;100.00;46894.81;5031508;28;20091;-89
2023/12/28 03:48:38;;;;;;;12.17;2.10;;;;;;;-145.18;100.00;46894.81;5054105;28;20433;-89
2023/12/28 03:51:04;;;;;;;5.23;1.63;;;;;;;-145.18;100.00;46894.81;5052677;28;20076;-89
2023/12/28 03:53:33;;;;;;;13.70;2.87;;;;;;;-145.18;100.00;46890.91;5038652;28;20044;-89
2023/12/28 03:55:59;;;;;;;8.20;1.87;;;;;;;-145.18;100.00;46894.81;5047692;28;20034;-91
2023/12/28 03:58:24;;;;;;;9.97;2.10;;;;;;;-145.18;100.00;46894.81;5048775;28;20032;-89
2023/12/28 04:00:50;;;;;;;12.03;2.50;;;;;;;-145.18;100.00;46896.75;5040100;28;20269;-90
2023/12/28 04:03:15;;;;;;;15.90;2.00;;;;;;;-145.18;100.00;46894.81;5067301;28;20033;-89
2023/12/28 04:05:42;;;;;;;10.53;2.57;;;;;;;-145.18;100.00;46894.81;5034749;28;20029;-90
2023/12/28 04:08:07;;;;;;;8.63;1.77;;;;;;;-145.18;100.00;46896.75;5049182;28;20041;-91
2023/12/28 04:10:33;;;;;;;8.93;2.13;;;;;;;-145.18;100.00;46892.84;5053128;28;20060;-90
2023/12/28 04:13:00;;;;;;;15.80;3.83;;;;;;;-145.18;100.00;46892.84;5053882;28;20053;-90
2023/12/28 04:15:28;;;;;;;10.70;2.00;;;;;;;-145.18;100.00;46890.91;5053522;28;20436;-90
2023/12/28 04:17:54;;;;;;;6.90;1.93;;;;;;;-145.18;100.00;46888.94;5054113;28;20098;-90
2023/12/28 04:20:19;;;;;;;4.93;1.60;;;;;;;-145.18;100.00;46890.91;5055119;28;20028;-91
2023/12/28 04:22:45;;;;;;;13.27;2.20;;;;;;;-145.18;100.00;46887.00;5053444;28;20409;-91
2023/12/28 04:25:10;;;;;;;10.30;1.93;;;;;;;-145.18;100.00;46888.94;5050285;28;20061;-91
2023/12/28 04:27:37;;;;;;;13.73;2.97;;;;;;;-145.18;100.00;46888.94;5063428;28;20762;-90
2023/12/28 04:30:05;;;;;;;16.33;2.57;;;;;;;-145.18;100.00;46894.81;5058006;28;20028;-89
2023/12/28 04:32:30;;;;;;;15.70;2.37;;;;;;;-145.18;100.00;46894.81;5053687;28;20025;-90
2023/12/28 04:34:56;;;;;;;7.43;2.13;;;;;;;-145.18;100.00;46888.94;5037011;28;20072;-90
2023/12/28 04:37:21;;;;;;;9.60;2.83;;;;;;;-145.18;100.00;46890.91;5051023;28;20017;-83
2023/12/28 04:39:47;;;;;;;12.43;1.90;;;;;;;-145.18;100.00;46890.91;5035299;28;20029;-84
2023/12/28 04:42:12;;;;;;;9.73;1.63;;;;;;;-145.18;100.00;46888.94;5054773;28;20028;-84
2023/12/28 04:44:38;;;;;;;13.27;2.30;;;;;;;-145.18;100.00;46888.94;5041480;28;20481;-84
2023/12/28 04:47:04;;;;;;;6.53;1.87;;;;;;;-145.18;100.00;46888.94;5035722;28;20032;-83
2023/12/28 04:49:30;;;;;;;5.20;1.77;;;;;;;-145.18;100.00;46888.94;5036881;28;20036;-84
2023/12/28 04:51:56;;;;;;;11.23;2.10;;;;;;;-145.18;100.00;46883.09;5039796;28;20115;-85
2023/12/28 04:54:21;;;;;;;20.30;3.67;;;;;;;-145.18;100.00;46883.09;5043951;28;20489;-84
2023/12/28 04:56:47;;;;;;;12.43;2.33;;;;;;;-145.18;100.00;46881.13;5050684;28;20037;-84
2023/12/28 04:59:13;;;;;;;9.27;1.70;;;;;;;-145.18;100.00;46877.22;5052994;28;20029;-84
2023/12/28 05:01:42;;;;;;;8.13;1.90;;;;;;;-145.18;100.00;46873.31;5052403;28;20482;-84
2023/12/28 05:04:07;;;;;;;9.03;1.60;;;;;;;-145.18;100.00;46875.28;5041212;28;20440;-84
2023/12/28 05:06:32;;;;;;;7.53;2.43;;;;;;;-145.18;100.00;46867.44;5043975;28;20111;-85
2023/12/28 05:08:58;;;;;;;8.77;2.30;;;;;;;-145.18;100.00;46869.41;5036879;28;20498;-85
2023/12/28 05:11:23;;;;;;;13.43;3.20;;;;;;;-145.18;100.00;46867.44;5041589;28;20029;-85
2023/12/28 05:13:48;;;;;;;10.10;2.00;;;;;;;-145.18;100.00;46857.69;5036696;28;20116;-85
2023/12/28 05:16:14;;;;;;;16.30;2.87;;;;;;;-145.18;100.00;46857.69;5035543;28;20045;-84
2023/12/28 05:18:39;;;;;;;9.87;2.20;;;;;;;-145.18;100.00;46857.69;5047878;28;20100;-84
2023/12/28 05:21:05;;;;;;;11.53;2.93;;;;;;;-145.18;100.00;46851.81;5038293;28;20466;-84
2023/12/28 05:23:30;;;;;;;20.60;3.43;;;;;;;-145.18;100.00;46849.88;5052543;28;20044;-85
2023/12/28 05:25:55;;;;;;;17.77;2.23;;;;;;;-145.18;100.00;46842.06;5036774;28;20467;-84
2023/12/28 05:28:21;;;;;;;8.70;2.73;;;;;;;-145.18;100.00;46844.00;5049493;28;20112;-85
2023/12/28 05:30:46;;;;;;;11.63;2.53;;;;;;;-145.18;100.00;46847.91;5038702;28;20045;-85
2023/12/28 05:33:12;;;;;;;9.90;2.07;;;;;;;-145.18;100.00;46845.97;5033633;28;20029;-83
2023/12/28 05:35:37;;;;;;;10.17;2.03;;;;;;;-145.18;100.00;46842.06;5039153;28;20064;-84
2023/12/28 05:38:03;;;;;;;10.37;2.13;;;;;;;-145.18;100.00;46840.09;5044300;28;20021;-84
2023/12/28 05:40:28;;;;;;;10.13;1.73;;;;;;;-145.18;100.00;46838.16;5043096;28;20061;-84
2023/12/28 05:42:53;;;;;;;15.27;2.23;;;;;;;-145.18;100.00;46830.34;5047287;28;20021;-84
2023/12/28 05:45:19;;;;;;;6.43;1.77;;;;;;;-145.18;100.00;46830.34;5051563;28;20469;-85
2023/12/28 05:47:45;;;;;;;10.20;2.60;;;;;;;-145.18;100.00;46836.19;5037273;28;20438;-90
2023/12/28 05:50:10;;;;;;;24.27;2.93;;;;;;;-145.18;100.00;46828.38;5036930;28;20037;-90
2023/12/28 05:52:35;;;;;;;13.73;3.23;;;;;;;-145.18;100.00;46834.25;5019998;28;20064;-90
2023/12/28 05:55:01;;;;;;;13.17;1.83;;;;;;;-145.18;100.00;46832.28;5041141;28;20075;-89
2023/12/28 05:57:29;;;;;;;14.40;2.87;;;;;;;-145.18;100.00;46838.16;5042003;28;20043;-90
2023/12/28 05:59:55;;;;;;;12.33;2.50;;;;;;;-145.18;100.00;46840.09;5048416;28;20534;-91
2023/12/28 06:02:21;;;;;;;10.90;2.50;;;;;;;-145.18;100.00;46832.28;5032162;28;20041;-90
2023/12/28 06:04:46;;;;;;;13.83;2.27;;;;;;;-145.18;100.00;46830.34;5034161;28;20040;-90
2023/12/28 06:07:11;;;;;;;16.13;3.00;;;;;;;-145.18;100.00;46838.16;5036509;28;20033;-90
2023/12/28 06:09:38;;;;;;;14.23;2.37;;;;;;;-145.18;100.00;46832.28;5051780;28;20069;-89
2023/12/28 06:12:04;;;;;;;19.13;2.07;;;;;;;-145.18;100.00;46832.28;5046847;28;20036;-90
2023/12/28 06:14:30;;;;;;;16.07;2.00;;;;;;;-145.18;100.00;46836.19;5035314;28;20066;-89
2023/12/28 06:16:55;;;;;;;14.67;2.30;;;;;;;-145.18;100.00;46828.38;5047857;28;20025;-91
2023/12/28 06:19:22;;;;;;;21.30;3.07;;;;;;;-145.18;100.00;46832.28;5034603;28;20040;-90
2023/12/28 06:21:48;;;;;;;16.43;2.40;;;;;;;-145.18;100.00;46830.34;5037969;28;20033;-90
2023/12/28 06:24:13;;;;;;;14.97;2.50;;;;;;;-145.18;100.00;46828.38;5035312;28;20025;-90
2023/12/28 06:26:43;;;;;;;18.00;2.30;;;;;;;-145.18;100.00;46832.28;5068533;28;20504;-90
2023/12/28 06:29:09;;;;;;;13.03;2.23;;;;;;;-145.18;100.00;46832.28;5046813;28;20035;-91
2023/12/28 06:31:36;;;;;;;17.43;2.00;;;;;;;-145.18;100.00;46836.19;5049179;28;20078;-89
2023/12/28 06:34:06;;;;;;;16.83;2.63;;;;;;;-145.18;100.00;46834.25;5035782;28;20025;-89
2023/12/28 06:36:32;;;;;;;11.10;2.17;;;;;;;-145.18;100.00;46834.25;5036520;28;20033;-87
2023/12/28 06:38:57;;;;;;;13.93;3.07;;;;;;;-145.18;100.00;46842.06;5049004;28;20116;-87
2023/12/28 06:41:23;;;;;;;13.30;2.70;;;;;;;-145.18;100.00;46836.19;5039273;28;20767;-87
2023/12/28 06:43:49;;;;;;;19.80;2.33;;;;;;;-145.18;100.00;46840.09;5052314;28;20024;-86
2023/12/28 06:46:15;;;;;;;15.43;2.10;;;;;;;-145.18;100.00;46838.16;5049999;28;20040;-87
2023/12/28 06:48:40;;;;;;;12.73;2.53;;;;;;;-145.18;100.00;46844.00;5052177;28;20072;-87
2023/12/28 06:51:06;;;;;;;12.83;2.40;;;;;;;-145.18;100.00;46838.16;5049070;28;20417;-87
2023/12/28 06:53:32;;;;;;;18.53;2.87;;;;;;;-145.18;100.00;46840.09;5052112;28;20033;-86
2023/12/28 06:55:57;;;;;;;20.00;2.90;;;;;;;-145.18;100.00;46840.09;5047909;28;20035;-88
2023/12/28 06:58:22;;;;;;;20.90;2.60;;;;;;;-145.18;100.00;46844.00;5041565;28;20033;-82
2023/12/28 07:00:48;;;;;;;17.63;3.03;;;;;;;-145.18;100.00;46851.81;5034590;28;20505;-82
2023/12/28 07:03:13;;;;;;;19.73;2.77;;;;;;;-145.18;100.00;46845.97;5035233;28;20040;-81
2023/12/28 07:05:39;;;;;;;16.27;2.03;;;;;;;-145.18;100.00;46849.88;5036891;28;20042;-81
2023/12/28 07:08:04;;;;;;;12.50;2.13;;;;;;;-145.18;100.00;46847.91;5044573;28;20053;-81
2023/12/28 07:10:30;;;;;;;14.57;2.30;;;;;;;-145.18;100.00;46851.81;5040202;28;20124;-85
2023/12/28 07:12:55;;;;;;;15.87;3.30;;;;;;;-145.18;100.00;46859.63;5049425;28;20033;-85
2023/12/28 07:15:20;;;;;;;12.87;2.10;;;;;;;-145.18;100.00;46851.81;5048198;28;20050;-84
2023/12/28 07:17:46;;;;;;;19.17;2.77;;;;;;;-145.18;100.00;46847.91;5053921;28;20179;-88
2023/12/28 07:20:12;;;;;;;16.13;2.73;;;;;;;-145.18;100.00;46855.72;5040873;28;20079;-92
2023/12/28 07:22:38;;;;;;;16.63;2.40;;;;;;;-145.18;100.00;46857.69;5070487;28;20059;-89
2023/12/28 07:25:06;;;;;;;17.33;2.73;;;;;;;-145.18;100.00;46851.81;5063651;28;20120;-83
2023/12/28 07:27:36;;;;;;;17.57;2.93;;;;;;;-145.18;100.00;46859.63;5053036;28;20385;-84
2023/12/28 07:30:02;;;;;;;27.17;4.33;;;;;;;-145.18;100.00;46859.63;5047346;28;20025;-85
2023/12/28 07:32:28;;;;;;;13.40;1.90;;;;;;;-145.18;100.00;46861.59;5053971;28;20036;-84
2023/12/28 07:34:54;;;;;;;20.10;2.77;;;;;;;-145.18;100.00;46859.63;5050321;28;20029;-84
2023/12/28 07:37:20;;;;;;;22.57;3.40;;;;;;;-145.18;100.00;46859.63;5036867;28;20111;-85
2023/12/28 07:39:46;;;;;;;14.70;2.33;;;;;;;-145.18;100.00;46849.88;5053306;28;20033;-85
2023/12/28 07:42:11;;;;;;;11.30;2.30;;;;;;;-145.18;100.00;46853.78;5051886;28;20033;-89
2023/12/28 07:44:36;;;;;;;17.33;2.47;;;;;;;-145.18;100.00;46849.88;5054075;28;20362;-87
2023/12/28 07:47:02;;;;;;;19.17;3.77;;;;;;;-145.18;100.00;46851.81;5052418;28;20060;-86
2023/12/28 07:49:30;;;;;;;15.10;2.77;;;;;;;-145.18;100.00;46845.97;5054576;28;20477;-88
2023/12/28 07:51:56;;;;;;;14.57;2.20;;;;;;;-145.18;100.00;46849.88;5052790;28;20029;-88
2023/12/28 07:54:21;;;;;;;14.93;2.20;;;;;;;-145.18;100.00;46851.81;5054180;28;20535;-87
2023/12/28 07:56:46;;;;;;;8.20;2.30;;;;;;;-145.18;100.00;46847.91;5049496;28;20438;-86
2023/12/28 07:59:12;;;;;;;16.93;2.33;;;;;;;-145.18;100.00;46847.91;5054275;28;20035;-89
2023/12/28 08:01:37;;;;;;;14.87;2.23;;;;;;;-145.18;100.00;46857.69;5050032;28;20029;-91
2023/12/28 08:04:03;;;;;;;16.23;2.63;;;;;;;-145.18;100.00;46855.72;5048999;28;20032;-89
2023/12/28 08:06:32;;;;;;;16.00;3.27;;;;;;;-145.18;100.00;46849.88;5045554;28;20094;-83
2023/12/28 08:08:59;;;;;;;24.77;3.57;;;;;;;-145.18;100.00;46851.81;5039541;28;20094;-76
2023/12/28 08:11:24;;;;;;;25.97;4.03;;;;;;;-145.18;100.00;46851.81;5040520;28;20133;-76
2023/12/28 08:13:50;;;;;;;18.07;2.43;;;;;;;-145.18;100.00;46859.63;5053522;28;20511;-75
2023/12/28 08:16:15;;;;;;;21.33;2.27;;;;;;;-145.18;100.00;46853.78;5039560;28;20041;-76
2023/12/28 08:18:40;;;;;;;19.50;2.43;;;;;;;-145.18;100.00;46851.81;5038972;28;20040;-76
2023/12/28 08:21:06;;;;;;;18.10;3.23;;;;;;;-145.18;100.00;46851.81;5040939;28;20778;-77
2023/12/28 08:23:31;;;;;;;21.87;3.00;;;;;;;-145.18;100.00;46851.81;5045528;28;20033;-76
2023/12/28 08:25:57;;;;;;;26.33;3.07;;;;;;;-145.18;100.00;46851.81;5043852;28;20055;-77
2023/12/28 08:28:23;;;;;;;21.33;2.43;;;;;;;-145.18;100.00;46851.81;5041999;28;20064;-76
2023/12/28 08:30:48;;;;;;;14.43;2.53;;;;;;;-145.18;100.00;46849.88;5039884;28;20029;-76
2023/12/28 08:33:15;;;;;;;22.90;2.93;;;;;;;-145.18;100.00;46847.91;5038700;28;20436;-77
2023/12/28 08:35:40;;;;;;;14.77;2.17;;;;;;;-145.18;100.00;46847.91;5041333;28;20041;-76
2023/12/28 08:38:06;;;;;;;23.07;2.90;;;;;;;-145.18;100.00;46845.97;5040134;28;20469;-77
2023/12/28 08:40:32;;;;;;;11.53;1.93;;;;;;;-145.18;100.00;46845.97;5038966;28;21332;-77
2023/12/28 08:42:57;;;;;;;14.63;2.50;;;;;;;-145.18;100.00;46838.16;5041266;28;20528;-76
2023/12/28 08:45:23;;;;;;;17.23;3.10;;;;;;;-145.18;100.00;46844.00;5040328;28;20030;-77
2023/12/28 08:47:48;;;;;;;14.93;3.50;;;;;;;-145.18;100.00;46838.16;5041159;28;20037;-76
2023/12/28 08:50:14;;;;;;;18.97;2.43;;;;;;;-145.18;100.00;46838.16;5039844;28;20521;-77
2023/12/28 08:52:40;;;;;;;26.67;3.20;;;;;;;-145.18;100.00;46838.16;5040670;28;20490;-76
2023/12/28 08:55:05;;;;;;;21.47;2.93;;;;;;;-145.18;100.00;46830.34;5040302;28;20031;-76
2023/12/28 08:57:31;;;;;;;16.53;2.50;;;;;;;-145.18;100.00;46828.38;5056052;28;20090;-77
2023/12/28 08:59:57;;;;;;;19.73;3.00;;;;;;;-145.18;100.00;46834.25;5041433;28;20033;-77
2023/12/28 09:02:22;;;;;;;23.03;3.57;;;;;;;-145.18;100.00;46828.38;5040655;28;20061;-76
2023/12/28 09:04:48;;;;;;;18.00;2.47;;;;;;;-145.18;100.00;46834.25;5039127;28;20079;-76
2023/12/28 09:07:14;;;;;;;22.03;4.20;;;;;;;-145.18;100.00;46828.38;5039670;28;20558;-77
2023/12/28 09:09:39;;;;;;;16.17;2.43;;;;;;;-145.18;100.00;46828.38;5040796;28;20033;-76
2023/12/28 09:12:05;;;;;;;13.73;2.90;;;;;;;-145.18;100.00;46822.53;5039705;28;20477;-77
2023/12/28 09:14:30;;;;;;;20.83;2.30;;;;;;;-145.18;100.00;46820.56;5037961;28;20040;-77
2023/12/28 09:16:56;;;;;;;24.03;3.57;;;;;;;-145.18;100.00;46814.72;5042510;28;20030;-80
2023/12/28 09:19:22;;;;;;;19.70;2.83;;;;;;;-145.18;100.00;46814.72;5045151;28;20569;-80
2023/12/28 09:21:48;;;;;;;21.37;3.50;;;;;;;-145.18;100.00;46806.91;5046901;28;20041;-80
2023/12/28 09:24:14;;;;;;;13.77;2.80;;;;;;;-145.18;100.00;46812.75;5050344;28;20516;-80
2023/12/28 09:26:41;;;;;;;21.57;2.07;;;;;;;-145.18;100.00;46810.81;5048874;28;20043;-81
2023/12/28 09:29:06;;;;;;;12.63;2.20;;;;;;;-145.18;100.00;46810.81;5045175;28;20055;-79
2023/12/28 09:31:31;;;;;;;13.00;2.10;;;;;;;-145.18;100.00;46814.72;5046968;28;20069;-80
2023/12/28 09:33:57;;;;;;;17.30;2.53;;;;;;;-145.18;100.00;46812.75;5059556;28;20040;-79
2023/12/28 09:36:22;;;;;;;21.43;2.60;;;;;;;-145.18;100.00;46806.91;5038570;28;20060;-80
2023/12/28 09:38:48;;;;;;;16.27;2.07;;;;;;;-145.18;100.00;46810.81;5034132;28;20144;-80
2023/12/28 09:41:15;;;;;;;17.07;2.40;;;;;;;-145.18;100.00;46812.75;5042244;28;20110;-79
2023/12/28 09:43:52;;;;;;;15.80;2.00;;;;;;;-145.18;100.00;46808.84;5038598;28;20049;-80
2023/12/28 09:46:18;;;;;;;28.33;3.13;;;;;;;-145.18;100.00;46814.72;5040608;28;20022;-80
2023/12/28 09:48:44;;;;;;;14.43;1.77;;;;;;;-145.18;100.00;46812.75;5040748;28;20033;-79
2023/12/28 09:51:10;;;;;;;16.20;2.43;;;;;;;-145.18;100.00;46812.75;5037122;28;20029;-80
2023/12/28 09:53:36;;;;;;;22.80;2.33;;;;;;;-145.18;100.00;46816.66;5044755;28;20057;-80
2023/12/28 09:56:03;;;;;;;17.43;2.30;;;;;;;-145.18;100.00;46812.75;5050151;28;20103;-79
2023/12/28 09:58:30;;;;;;;20.30;2.40;;;;;;;-145.18;100.00;46812.75;5044148;28;20029;-79
2023/12/28 10:00:56;;;;;;;13.83;2.13;;;;;;;-145.18;100.00;46808.84;5047565;28;20040;-81
2023/12/28 10:03:22;;;;;;;29.60;3.90;;;;;;;-145.18;100.00;46810.81;5045212;28;20033;-80
2023/12/28 10:05:47;;;;;;;22.97;2.60;;;;;;;-145.18;100.00;46806.91;5051435;28;20028;-80
2023/12/28 10:08:14;;;;;;;14.73;2.23;;;;;;;-145.18;100.00;46808.84;5049869;28;20045;-80
2023/12/28 10:10:43;;;;;;;21.63;2.50;;;;;;;-145.18;100.00;46806.91;5052421;28;20135;-80
2023/12/28 10:13:10;;;;;;;19.80;2.10;;;;;;;-145.18;100.00;46806.91;5051925;28;20071;-79
2023/12/28 10:15:37;;;;;;;19.40;3.20;;;;;;;-145.18;100.00;46804.94;5044740;28;20052;-80
2023/12/28 10:18:03;;;;;;;26.37;4.90;;;;;;;-145.18;100.00;46803.00;5039792;28;20761;-80
2023/12/28 10:20:29;;;;;;;14.27;2.00;;;;;;;-145.18;100.00;46803.00;5044065;28;20036;-80
2023/12/28 10:22:54;;;;;;;17.37;2.60;;;;;;;-145.18;100.00;46808.84;5038047;28;20041;-80
2023/12/28 10:25:20;;;;;;;13.77;2.07;;;;;;;-145.18;100.00;46814.72;5050657;28;20032;-81
2023/12/28 10:27:45;;;;;;;22.27;2.57;;;;;;;-145.18;100.00;46804.94;5049835;28;20041;-81
2023/12/28 10:30:11;;;;;;;16.83;3.60;;;;;;;-145.18;100.00;46808.84;5039940;28;20481;-82
2023/12/28 10:32:40;;;;;;;20.83;2.40;;;;;;;-145.18;100.00;46803.00;5041623;28;20381;-81
2023/12/28 10:35:06;;;;;;;19.73;3.30;;;;;;;-145.18;100.00;46804.94;5039387;28;20037;-83
2023/12/28 10:37:32;;;;;;;21.83;3.30;;;;;;;-145.18;100.00;46801.03;5049571;28;20550;-83
2023/12/28 10:40:00;;;;;;;15.00;2.73;;;;;;;-145.18;100.00;46799.09;5034675;28;20045;-81
2023/12/28 10:42:32;;;;;;;25.67;3.07;;;;;;;-145.18;100.00;46799.09;5035994;28;20469;-81
2023/12/28 10:45:10;;;;;;;23.50;3.07;;;;;;;-145.18;100.00;46793.22;5048438;28;20031;-80
2023/12/28 10:47:43;;;;;;;18.77;2.30;;;;;;;-145.18;100.00;46795.19;5037967;28;20033;-81
2023/12/28 10:50:11;;;;;;;15.43;2.27;;;;;;;-145.18;100.00;46793.22;5045136;28;20029;-81
2023/12/28 10:52:39;;;;;;;13.27;2.20;;;;;;;-145.18;100.00;46793.22;5034189;28;20029;-80
2023/12/28 10:55:18;;;;;;;18.33;2.47;;;;;;;-145.18;100.00;46789.31;5047106;28;20028;-80
2023/12/28 10:58:24;;;;;;;21.07;2.60;;;;;;;-145.18;100.00;46787.38;5035550;28;20080;-80
2023/12/28 11:00:58;;;;;;;19.37;3.40;;;;;;;-145.18;100.00;46787.38;5005126;28;20029;-83